METAR Data
IDs: Format: Raw Decoded Include TAF

Data at: 1405 UTC 14 Dec 2019

PATK 141353Z AUTO VRB04KT 10SM OVC080 M01/M08 A2963 RMK AO2 SLP038 T10061083 TSNO
PATK 141253Z AUTO 03006KT 10SM OVC075 M01/M09 A2962 RMK AO2 SLP036 T10111089 TSNO
PATK 141153Z AUTO 02005KT 10SM BKN090 OVC110 M02/M10 A2962 RMK AO2 SLP037 T10171100 11017 21061 52007 TSNO
PATK 141053Z AUTO 01003KT 10SM OVC110 M04/M11 A2962 RMK AO2 SLP037 T10391106 TSNO
PATK 140953Z AUTO 04004KT 10SM CLR M04/M11 A2960 RMK AO2 SLP031 T10441106 TSNO
PATK 140853Z AUTO 01004KT 10SM CLR M03/M10 A2960 RMK AO2 SLP031 T10281100 400111044 58012 TSNO
PATK 140753Z AUTO 03006KT 10SM CLR M03/M09 A2962 RMK AO2 SLP035 T10281094 TSNO
PATK 140653Z AUTO 01004KT 10SM CLR M03/M09 A2963 RMK AO2 SLP040 T10281094 TSNO
PATK 140553Z AUTO 01005KT 10SM CLR M01/M09 A2964 RMK AO2 SLP042 T10111089 10011 21011 51002 TSNO
PATK 140453Z AUTO 02011G16KT 10SM FEW095 00/M08 A2963 RMK AO2 SLP040 T00001083 TSNO
PATK 140353Z AUTO 35003KT 10SM BKN100 M01/M07 A2964 RMK AO2 SLP042 T10061072 TSNO
PATK 140253Z AUTO 36006KT 10SM OVC100 01/M07 A2963 RMK AO2 SLP040 T00061072 50004 TSNO
PATK 140153Z AUTO 01006KT 10SM OVC110 01/M07 A2964 RMK AO2 SLP041 T00111067 TSNO
PATK 140053Z 01009G17KT 10SM OVC110 01/M07 A2963 RMK AO2 SLP038 T00111072
PATK 132353Z 01009KT 10SM OVC100 01/M08 A2962 RMK AO2 SLP036 T00111078 10011 20000 51019
PATK 132253Z 02008G17KT 10SM FEW090 OVC110 01/M08 A2961 RMK AO2 SLP034 T00111078
PATK 132153Z 02010G18KT 10SM SCT100 01/M08 A2960 RMK AO2 SLP028 T00111078
PATK 132053Z 01011G17KT 10SM CLR 01/M08 A2956 RMK AO2 SLP017 T00061078 51036
PATK 131953Z 01009G15KT 10SM CLR 00/M08 A2953 RMK AO2 SLP006 T00001083
PATK 131853Z 02009G19KT 10SM CLR 01/M08 A2949 RMK AO2 SLP993 T00061078
PATK 131753Z 02010KT 10SM CLR 01/M08 A2946 RMK AO2 SLP981 T00061078 10011 20000 53026
PATK 131553Z AUTO 01004KT 10SM FEW075 OVC095 01/M07 A2940 RMK AO2 SLP961 T00061067 TSNO
PATK 131453Z AUTO 01006KT 10SM SCT090 OVC110 01/M07 A2938 RMK AO2 SLP955 T00061067 53015 TSNO
PATK 131353Z AUTO 01004KT 10SM CLR 00/M06 A2936 RMK AO2 SLP948 T00001061 TSNO
PATK 131253Z AUTO 01010KT 10SM CLR 01/M07 A2935 RMK AO2 SLP943 T00061067 TSNO
PATK 131153Z AUTO 01006KT 10SM CLR 01/M06 A2933 RMK AO2 SLP939 60000 T00061056 10011 21006 51017 TSNO
PATK 131053Z AUTO 02010G17KT 10SM OVC075 01/M07 A2932 RMK AO2 SLP935 T00111067 TSNO
PATK 130953Z AUTO 02007KT 10SM OVC090 01/M06 A2931 RMK AO2 SLP929 T00111061 TSNO
PATK 130853Z AUTO 02011G17KT 10SM BKN100 OVC120 01/M06 A2928 RMK AO2 SLP921 60000 T00111061 400281044 53013 TSNO
PATK 130753Z AUTO 01008G18KT 10SM OVC090 01/M06 A2926 RMK AO2 SLP916 T00111061 TSNO
PATK 130653Z AUTO 34006KT 10SM OVC070 M01/M07 A2925 RMK AO2 UPB20E32 SLP912 P0000 T10061072 TSNO
PATK 130553Z AUTO 34007KT 300V010 10SM OVC055 00/M07 A2924 RMK AO2 SLP909 T00001072 10000 21039 53004 TSNO
PATK 130453Z AUTO 35005KT 10SM BKN090 OVC110 M01/M08 A2923 RMK AO2 SLP905 T10061078 TSNO
PATK 130353Z AUTO 35003KT 10SM FEW120 M03/M08 A2924 RMK AO2 SLP905 T10331078 TSNO
PATK 130253Z AUTO 34004KT 10SM CLR M03/M08 A2923 RMK AO2 SLP905 T10281078 56007 TSNO